createdAt,value
2022-09-09T00:02:57.478Z,95433.63
2022-09-09T00:08:00.308Z,95439.84
2022-09-09T00:13:03.107Z,95426.63
2022-09-09T00:18:05.799Z,95422.50
2022-09-09T00:23:09.024Z,95426.78
2022-09-09T00:28:11.766Z,95427.69
2022-09-09T00:33:15.890Z,95421.69
2022-09-09T00:38:19.063Z,95422.16
2022-09-09T00:43:23.254Z,95424.72
2022-09-09T00:48:26.302Z,95425.63
2022-09-09T00:53:30.936Z,95421.16
2022-09-09T00:58:34.286Z,95425.91
2022-09-09T01:03:37.218Z,95421.13
2022-09-09T01:08:40.483Z,95429.97
2022-09-09T01:13:43.179Z,95424.28
2022-09-09T01:18:45.869Z,95430.84
2022-09-09T01:23:50.141Z,95427.56
2022-09-09T01:28:53.630Z,95431.72
2022-09-09T01:33:56.343Z,95427.91
2022-09-09T01:38:59.072Z,95427.81
2022-09-09T01:44:01.800Z,95418.75
2022-09-09T01:49:04.509Z,95427.47
2022-09-09T01:54:07.198Z,95428.88
2022-09-09T01:59:10.186Z,95434.03
2022-09-09T02:04:12.843Z,95427.25
2022-09-09T02:09:15.567Z,95425.63
2022-09-09T02:14:18.272Z,95418.41
2022-09-09T02:19:27.775Z,95412.44
2022-09-09T02:24:30.541Z,95422.63
2022-09-09T02:29:33.225Z,95417.63
2022-09-09T02:34:35.945Z,95415.97
2022-09-09T02:39:38.688Z,95407.56
2022-09-09T02:44:41.901Z,95406.53
2022-09-09T02:49:44.624Z,95403.06
2022-09-09T02:54:47.315Z,95409.53
2022-09-09T02:59:50.014Z,95410.50
2022-09-09T03:04:52.916Z,95407.81
2022-09-09T03:09:55.952Z,95405.38
2022-09-09T03:14:58.759Z,95399.00
2022-09-09T03:20:02.631Z,95403.63
2022-09-09T03:25:05.346Z,95403.41
2022-09-09T03:30:08.411Z,95403.19
2022-09-09T03:35:11.127Z,95397.06
2022-09-09T03:40:13.960Z,95400.78
2022-09-09T03:45:18.054Z,95393.13
2022-09-09T03:50:20.758Z,95393.47
2022-09-09T03:55:23.501Z,95391.88
2022-09-09T04:00:26.266Z,95388.56
2022-09-09T04:05:29.465Z,95380.34
2022-09-09T04:10:32.472Z,95385.13
2022-09-09T04:15:36.681Z,95379.09
2022-09-09T04:20:39.545Z,95376.38
2022-09-09T04:25:42.395Z,95375.88
2022-09-09T04:30:45.286Z,95371.44
2022-09-09T04:35:47.999Z,95358.34
2022-09-09T04:40:50.795Z,95370.47
2022-09-09T04:45:53.615Z,95364.50
2022-09-09T04:50:56.917Z,95371.81
2022-09-09T04:56:00.904Z,95369.72
2022-09-09T05:01:03.757Z,95362.81
2022-09-09T05:06:07.112Z,95363.19
2022-09-09T05:11:10.705Z,95367.66
2022-09-09T05:16:14.023Z,95378.94
2022-09-09T05:21:16.834Z,95377.81
2022-09-09T05:26:19.546Z,95392.00
2022-09-09T05:31:22.379Z,95380.00
2022-09-09T05:36:25.136Z,95385.13
2022-09-09T05:41:31.298Z,95394.09
2022-09-09T05:46:34.118Z,95387.59
2022-09-09T05:51:36.833Z,95390.09
2022-09-09T05:56:40.000Z,95392.03
2022-09-09T06:01:43.382Z,95383.69
2022-09-09T06:06:46.246Z,95391.66
2022-09-09T06:11:49.636Z,95407.06
2022-09-09T06:16:52.363Z,95402.09
2022-09-09T06:21:55.981Z,95394.13
2022-09-09T06:26:59.124Z,95397.78
2022-09-09T06:32:02.005Z,95401.63
2022-09-09T06:37:05.712Z,95395.72
2022-09-09T06:42:10.348Z,95393.31
2022-09-09T06:47:14.192Z,95399.53
2022-09-09T06:52:19.339Z,95403.38
2022-09-09T06:57:36.508Z,95404.78
2022-09-09T07:02:42.205Z,95414.69
2022-09-09T07:07:45.210Z,95412.28
2022-09-09T07:12:48.008Z,95417.38
2022-09-09T07:17:50.819Z,95442.00
2022-09-09T07:22:54.190Z,95473.28
2022-09-09T07:27:57.025Z,95463.78
2022-09-09T07:33:00.418Z,95474.75
2022-09-09T07:38:03.291Z,95474.66
2022-09-09T07:43:06.009Z,95470.88
2022-09-09T07:48:08.918Z,95482.38
2022-09-09T07:53:11.694Z,95487.91
2022-09-09T07:58:14.549Z,95487.16
2022-09-09T08:03:17.463Z,95487.91
2022-09-09T08:08:25.741Z,95483.53
2022-09-09T08:13:29.324Z,95483.94
2022-09-09T08:18:32.332Z,95505.41
2022-09-09T08:23:35.270Z,95505.47
2022-09-09T08:28:38.115Z,95503.91
2022-09-09T08:33:40.863Z,95518.47
2022-09-09T08:38:43.704Z,95511.56
2022-09-09T08:43:46.506Z,95525.09
2022-09-09T08:48:49.930Z,95516.72
2022-09-09T08:53:56.424Z,95521.16
2022-09-09T08:59:03.046Z,95520.56
2022-09-09T09:04:07.065Z,95523.59
2022-09-09T09:09:10.758Z,95521.22
2022-09-09T09:14:13.883Z,95511.00
2022-09-09T09:19:17.463Z,95513.34
2022-09-09T09:24:21.363Z,95509.84
2022-09-09T09:29:24.906Z,95519.00
2022-09-09T09:34:27.738Z,95518.19
2022-09-09T09:44:53.277Z,95524.56
2022-09-09T09:49:56.333Z,95518.28
2022-09-09T09:55:03.953Z,95514.50
2022-09-09T10:00:10.939Z,95523.84
2022-09-09T10:05:13.786Z,95521.38
2022-09-09T10:10:16.608Z,95522.34
2022-09-09T10:15:19.757Z,95513.00
2022-09-09T10:20:22.581Z,95508.22
2022-09-09T10:25:25.425Z,95516.47
2022-09-09T10:30:28.137Z,95520.84
2022-09-09T10:35:30.961Z,95515.25
2022-09-09T10:40:34.728Z,95508.94
2022-09-09T10:45:37.637Z,95516.75
2022-09-09T10:56:04.322Z,95518.06
2022-09-09T11:01:08.936Z,95516.25
2022-09-09T11:06:12.190Z,95512.75
2022-09-09T11:11:17.796Z,95508.59
2022-09-09T11:16:20.704Z,95503.81
2022-09-09T11:21:23.509Z,95507.81
2022-09-09T11:26:26.203Z,95498.28
2022-09-09T11:31:29.874Z,95501.75
2022-09-09T11:36:33.071Z,95497.88
2022-09-09T11:41:35.752Z,95496.09
2022-09-09T11:46:39.151Z,95492.47
2022-09-09T11:51:42.010Z,95494.28
2022-09-09T11:56:44.971Z,95494.22
2022-09-09T12:01:47.656Z,95496.41
2022-09-09T12:06:51.811Z,95498.69
2022-09-09T12:11:54.664Z,95495.91
2022-09-09T12:16:57.808Z,95494.47
2022-09-09T12:22:03.954Z,95490.94
2022-09-09T12:27:07.610Z,95483.94
2022-09-09T12:32:10.717Z,95486.53
2022-09-09T12:37:16.418Z,95481.69
2022-09-09T12:42:19.238Z,95472.56
2022-09-09T12:47:22.029Z,95474.25
2022-09-09T12:52:24.821Z,95472.72
2022-09-09T12:57:27.988Z,95465.56
2022-09-09T13:02:31.167Z,95460.72
2022-09-09T13:07:34.067Z,95457.88
2022-09-09T13:12:36.828Z,95455.53
2022-09-09T13:17:42.721Z,95439.75
2022-09-09T13:22:46.575Z,95432.50
2022-09-09T13:27:49.282Z,95435.31
2022-09-09T13:32:52.077Z,95421.84
2022-09-09T13:37:56.028Z,95422.75
2022-09-09T13:42:59.852Z,95417.38
2022-09-09T13:48:03.308Z,95413.94
2022-09-09T13:53:06.870Z,95412.38
2022-09-09T13:58:09.734Z,95406.31
2022-09-09T14:03:13.019Z,95408.56
2022-09-09T14:08:15.846Z,95410.19
2022-09-09T14:13:18.681Z,95412.25
2022-09-09T14:18:23.440Z,95412.19
2022-09-09T14:23:26.110Z,95420.72
2022-09-09T14:28:51.956Z,95424.13
2022-09-09T14:33:53.714Z,95423.41
2022-09-09T14:38:57.548Z,95429.34
2022-09-09T14:44:01.045Z,95443.34
2022-09-09T14:49:04.856Z,95437.34
2022-09-09T14:54:07.920Z,95440.06
2022-09-09T14:59:10.860Z,95445.75
2022-09-09T15:04:13.781Z,95448.50
2022-09-09T15:09:16.510Z,95437.31
2022-09-09T15:14:22.281Z,95436.38
2022-09-09T15:19:26.657Z,95441.53
2022-09-09T15:24:29.818Z,95426.19
2022-09-09T15:29:32.606Z,95429.19
2022-09-09T15:34:35.459Z,95412.97
2022-09-09T15:39:38.999Z,95412.72
2022-09-09T15:44:43.213Z,95407.63
2022-09-09T15:49:46.013Z,95400.25
2022-09-09T15:54:48.841Z,95391.41
2022-09-09T15:59:51.715Z,95394.94
2022-09-09T16:04:55.758Z,95392.22
2022-09-09T16:09:58.568Z,95397.75
2022-09-09T16:15:02.552Z,95394.94
2022-09-09T16:20:06.837Z,95404.84
2022-09-09T16:25:09.772Z,95395.25
2022-09-09T16:30:12.580Z,95389.66
2022-09-09T16:35:15.602Z,95383.91
2022-09-09T16:40:18.472Z,95385.88
2022-09-09T16:45:21.380Z,95374.66
2022-09-09T16:50:24.271Z,95371.09
2022-09-09T16:55:27.172Z,95377.66
2022-09-09T17:00:29.912Z,95379.56
2022-09-09T17:05:33.829Z,95392.41
2022-09-09T17:10:37.154Z,95383.72
2022-09-09T17:15:41.261Z,95394.81
2022-09-09T17:20:46.979Z,95388.94
2022-09-09T17:25:50.142Z,95394.56
2022-09-09T17:30:57.687Z,95399.72
2022-09-09T17:36:00.858Z,95394.28
2022-09-09T17:41:03.753Z,95404.81
2022-09-09T17:46:07.003Z,95413.13
2022-09-09T17:51:10.042Z,95415.50
2022-09-09T17:56:12.933Z,95426.19
2022-09-09T18:01:15.853Z,95419.94
2022-09-09T18:06:18.842Z,95424.88
2022-09-09T18:11:27.493Z,95435.56
2022-09-09T18:16:30.611Z,95417.38
2022-09-09T18:21:33.692Z,95431.84
2022-09-09T18:26:36.466Z,95433.28
2022-09-09T18:31:39.292Z,95434.41
2022-09-09T18:36:42.429Z,95451.06
2022-09-09T18:41:45.201Z,95462.38
2022-09-09T18:46:48.548Z,95476.50
2022-09-09T18:51:53.175Z,95470.78
2022-09-09T18:56:56.365Z,95466.81
2022-09-09T19:02:02.762Z,95469.25
2022-09-09T19:07:05.770Z,95494.66
2022-09-09T19:12:08.617Z,95496.69
2022-09-09T19:17:13.370Z,95558.78
2022-09-09T19:22:16.325Z,95561.16
2022-09-09T19:27:19.857Z,95552.19
2022-09-09T19:32:52.332Z,95567.78
2022-09-09T19:37:46.585Z,95578.34
2022-09-09T19:42:54.048Z,95567.13
2022-09-09T19:47:56.884Z,95584.56
2022-09-09T19:53:00.266Z,95580.34
2022-09-09T19:58:04.371Z,95586.63
2022-09-09T20:03:18.676Z,95586.91
2022-09-09T20:08:22.136Z,95592.44
2022-09-09T20:13:24.809Z,95599.00
2022-09-09T20:18:27.881Z,95593.38
2022-09-09T20:23:30.630Z,95595.75
2022-09-09T20:28:34.410Z,95600.47
2022-09-09T20:33:37.404Z,95586.25
2022-09-09T20:38:40.122Z,95583.13
2022-09-09T20:43:43.189Z,95588.38
2022-09-09T20:48:46.065Z,95590.19
2022-09-09T20:53:49.311Z,95585.03
2022-09-09T20:58:52.352Z,95584.84
2022-09-09T21:03:55.527Z,95589.97
2022-09-09T21:08:58.371Z,95591.88
2022-09-09T21:14:01.199Z,95596.91
2022-09-09T21:19:04.803Z,95607.44
2022-09-09T21:24:07.579Z,95611.69
2022-09-09T21:29:10.324Z,95624.72
2022-09-09T21:34:15.437Z,95636.06
2022-09-09T21:39:18.180Z,95643.47
2022-09-09T21:44:21.555Z,95631.53
2022-09-09T21:49:24.374Z,95629.25
2022-09-09T21:54:31.182Z,95633.13
2022-09-09T21:59:33.931Z,95644.69
2022-09-09T22:04:37.590Z,95647.44
2022-09-09T22:09:40.370Z,95644.09
2022-09-09T22:14:43.232Z,95648.25
2022-09-09T22:19:46.176Z,95643.81
2022-09-09T22:24:48.979Z,95644.03
2022-09-09T22:29:53.294Z,95643.88
2022-09-09T22:34:56.379Z,95638.97
2022-09-09T22:39:59.452Z,95641.09
2022-09-09T22:45:02.431Z,95645.53
2022-09-09T22:50:05.540Z,95643.94
2022-09-09T22:55:09.696Z,95646.03
2022-09-09T23:00:15.308Z,95646.47
2022-09-09T23:05:22.118Z,95647.00
2022-09-09T23:10:25.656Z,95649.31
2022-09-09T23:15:29.720Z,95632.69
2022-09-09T23:20:33.652Z,95644.03
2022-09-09T23:25:36.697Z,95631.78
2022-09-09T23:30:39.828Z,95626.84
2022-09-09T23:35:43.933Z,95626.53
2022-09-09T23:40:47.363Z,95637.81
2022-09-09T23:45:52.670Z,95633.38
2022-09-09T23:50:56.643Z,95625.03
2022-09-09T23:56:00.766Z,95628.38
